You are not logged in, Click here to log in
蘇黎世機場ZRH / LSZH 瑞士蘇黎世州
ICAO: LSZH Country: 瑞士蘇黎世州
Latitude: 47.4582 Longitude: 8.55548
Total Arrivals: 14 Total Departures: 15
Latest Arrival: LX139 (VHHH-LSZH)Mori. Yang Latest Departure: LX2150 (LSZH-LEPA)ALAN. LIU
Scenery:
METAR : LSZH 131120Z 26006KT 210V310 9999 -SHRA FEW010 SCT015 BKN018 03/01 Q0986 RESHRA BECMG NSW

蘇黎世機場ZRH

You are accessing this site from IP address 100.26.176.182. Virtual Airline. CMS by phpVMS.Website designed by Zumeweb and edited by Theo Bearman.
There is 0 User(s) Online: | and 4 Guest(s) Online.
All information on this site is for fight simulation purposes only. This site is for flight logging for pilots of Virtual Airline&模擬飛行論壇 FlySim only.